sensor_id;sensor_type;location;lat;lon;timestamp;P1;durP1;ratioP1;P2;durP2;ratioP2
19897;SDS011;10111;50.814;4.572;2023-02-15T00:01:41;51.03;;;25.43;;
19897;SDS011;10111;50.814;4.572;2023-02-15T00:04:07;43.83;;;26.43;;
19897;SDS011;10111;50.814;4.572;2023-02-15T00:06:34;46.47;;;25.60;;
19897;SDS011;10111;50.814;4.572;2023-02-15T00:09:00;42.83;;;26.37;;
19897;SDS011;10111;50.814;4.572;2023-02-15T00:11:26;35.97;;;22.97;;
19897;SDS011;10111;50.814;4.572;2023-02-15T00:14:15;39.37;;;23.97;;
19897;SDS011;10111;50.814;4.572;2023-02-15T00:16:45;47.17;;;26.40;;
19897;SDS011;10111;50.814;4.572;2023-02-15T00:19:12;40.63;;;25.33;;
19897;SDS011;10111;50.814;4.572;2023-02-15T00:21:39;44.67;;;27.13;;
19897;SDS011;10111;50.814;4.572;2023-02-15T00:24:06;54.00;;;28.43;;
19897;SDS011;10111;50.814;4.572;2023-02-15T00:26:33;46.37;;;25.50;;
19897;SDS011;10111;50.814;4.572;2023-02-15T00:29:00;47.63;;;26.53;;
19897;SDS011;10111;50.814;4.572;2023-02-15T00:31:27;45.13;;;27.60;;
19897;SDS011;10111;50.814;4.572;2023-02-15T00:33:55;52.90;;;27.13;;
19897;SDS011;10111;50.814;4.572;2023-02-15T00:36:26;44.77;;;26.57;;
19897;SDS011;10111;50.814;4.572;2023-02-15T00:38:51;46.60;;;26.90;;
19897;SDS011;10111;50.814;4.572;2023-02-15T00:41:17;39.87;;;25.87;;
19897;SDS011;10111;50.814;4.572;2023-02-15T00:43:43;41.47;;;25.73;;
19897;SDS011;10111;50.814;4.572;2023-02-15T00:46:08;46.97;;;26.43;;
19897;SDS011;10111;50.814;4.572;2023-02-15T00:48:34;47.00;;;27.80;;
19897;SDS011;10111;50.814;4.572;2023-02-15T00:51:00;51.30;;;27.70;;
19897;SDS011;10111;50.814;4.572;2023-02-15T00:53:26;49.17;;;27.60;;
19897;SDS011;10111;50.814;4.572;2023-02-15T00:55:53;44.43;;;27.47;;
19897;SDS011;10111;50.814;4.572;2023-02-15T00:58:19;47.20;;;26.90;;
19897;SDS011;10111;50.814;4.572;2023-02-15T01:00:45;43.27;;;26.40;;
19897;SDS011;10111;50.814;4.572;2023-02-15T01:03:11;42.90;;;26.60;;
19897;SDS011;10111;50.814;4.572;2023-02-15T01:05:39;43.60;;;24.97;;
19897;SDS011;10111;50.814;4.572;2023-02-15T01:08:05;44.57;;;26.40;;
19897;SDS011;10111;50.814;4.572;2023-02-15T01:10:31;42.63;;;26.80;;
19897;SDS011;10111;50.814;4.572;2023-02-15T01:12:58;48.07;;;26.93;;
19897;SDS011;10111;50.814;4.572;2023-02-15T01:15:23;39.70;;;24.33;;
19897;SDS011;10111;50.814;4.572;2023-02-15T01:17:49;36.63;;;24.33;;
19897;SDS011;10111;50.814;4.572;2023-02-15T01:20:25;46.77;;;26.37;;
19897;SDS011;10111;50.814;4.572;2023-02-15T01:22:53;34.87;;;23.13;;
19897;SDS011;10111;50.814;4.572;2023-02-15T01:25:20;39.77;;;24.40;;
19897;SDS011;10111;50.814;4.572;2023-02-15T01:27:47;42.70;;;24.97;;
19897;SDS011;10111;50.814;4.572;2023-02-15T01:30:13;40.30;;;24.23;;
19897;SDS011;10111;50.814;4.572;2023-02-15T01:32:39;34.93;;;23.33;;
19897;SDS011;10111;50.814;4.572;2023-02-15T01:35:06;38.33;;;23.83;;
19897;SDS011;10111;50.814;4.572;2023-02-15T01:37:32;43.37;;;26.50;;
19897;SDS011;10111;50.814;4.572;2023-02-15T01:39:59;42.17;;;24.07;;
19897;SDS011;10111;50.814;4.572;2023-02-15T01:42:26;47.97;;;25.27;;
19897;SDS011;10111;50.814;4.572;2023-02-15T01:44:58;41.67;;;24.40;;
19897;SDS011;10111;50.814;4.572;2023-02-15T01:52:41;44.63;;;24.43;;
19897;SDS011;10111;50.814;4.572;2023-02-15T01:55:11;38.47;;;24.17;;
19897;SDS011;10111;50.814;4.572;2023-02-15T01:57:38;40.83;;;25.53;;
19897;SDS011;10111;50.814;4.572;2023-02-15T02:00:05;41.80;;;26.33;;
19897;SDS011;10111;50.814;4.572;2023-02-15T02:02:32;35.37;;;23.20;;
19897;SDS011;10111;50.814;4.572;2023-02-15T02:04:59;43.70;;;23.83;;
19897;SDS011;10111;50.814;4.572;2023-02-15T02:07:31;42.03;;;25.73;;
19897;SDS011;10111;50.814;4.572;2023-02-15T02:09:59;44.50;;;25.83;;
19897;SDS011;10111;50.814;4.572;2023-02-15T02:12:26;47.17;;;28.07;;
19897;SDS011;10111;50.814;4.572;2023-02-15T02:14:52;50.13;;;24.73;;
19897;SDS011;10111;50.814;4.572;2023-02-15T02:17:26;39.40;;;25.00;;
19897;SDS011;10111;50.814;4.572;2023-02-15T02:20:44;45.53;;;24.37;;
19897;SDS011;10111;50.814;4.572;2023-02-15T02:34:21;37.53;;;24.03;;
19897;SDS011;10111;50.814;4.572;2023-02-15T02:44:52;39.77;;;22.90;;
19897;SDS011;10111;50.814;4.572;2023-02-15T02:47:36;43.27;;;23.87;;
19897;SDS011;10111;50.814;4.572;2023-02-15T02:50:21;43.97;;;24.70;;
19897;SDS011;10111;50.814;4.572;2023-02-15T02:52:48;37.03;;;24.53;;
19897;SDS011;10111;50.814;4.572;2023-02-15T02:57:44;45.30;;;24.00;;
19897;SDS011;10111;50.814;4.572;2023-02-15T03:00:16;45.97;;;24.67;;
19897;SDS011;10111;50.814;4.572;2023-02-15T03:02:43;42.43;;;24.87;;
19897;SDS011;10111;50.814;4.572;2023-02-15T03:05:14;38.63;;;23.27;;
19897;SDS011;10111;50.814;4.572;2023-02-15T03:07:43;43.70;;;24.00;;
19897;SDS011;10111;50.814;4.572;2023-02-15T03:10:12;34.73;;;23.27;;
19897;SDS011;10111;50.814;4.572;2023-02-15T03:12:39;38.53;;;24.57;;
19897;SDS011;10111;50.814;4.572;2023-02-15T03:15:16;41.93;;;24.07;;
19897;SDS011;10111;50.814;4.572;2023-02-15T03:17:47;43.97;;;24.07;;
19897;SDS011;10111;50.814;4.572;2023-02-15T03:20:28;40.10;;;23.63;;
19897;SDS011;10111;50.814;4.572;2023-02-15T03:23:07;44.43;;;24.27;;
19897;SDS011;10111;50.814;4.572;2023-02-15T03:25:40;49.43;;;25.60;;
19897;SDS011;10111;50.814;4.572;2023-02-15T03:28:10;39.70;;;24.00;;
19897;SDS011;10111;50.814;4.572;2023-02-15T03:30:40;41.70;;;25.00;;
19897;SDS011;10111;50.814;4.572;2023-02-15T03:33:10;40.40;;;23.33;;
19897;SDS011;10111;50.814;4.572;2023-02-15T03:35:43;44.47;;;25.17;;
19897;SDS011;10111;50.814;4.572;2023-02-15T03:38:51;41.70;;;23.50;;
19897;SDS011;10111;50.814;4.572;2023-02-15T03:41:37;40.67;;;23.60;;
19897;SDS011;10111;50.814;4.572;2023-02-15T03:44:11;42.83;;;24.53;;
19897;SDS011;10111;50.814;4.572;2023-02-15T03:47:00;38.43;;;23.43;;
19897;SDS011;10111;50.814;4.572;2023-02-15T03:49:35;37.17;;;24.00;;
19897;SDS011;10111;50.814;4.572;2023-02-15T03:52:20;39.17;;;23.03;;
19897;SDS011;10111;50.814;4.572;2023-02-15T03:54:49;44.37;;;25.87;;
19897;SDS011;10111;50.814;4.572;2023-02-15T03:57:20;48.03;;;25.10;;
19897;SDS011;10111;50.814;4.572;2023-02-15T04:00:16;42.23;;;23.70;;
19897;SDS011;10111;50.814;4.572;2023-02-15T04:05:56;33.60;;;22.47;;
19897;SDS011;10111;50.814;4.572;2023-02-15T04:08:21;36.50;;;23.13;;
19897;SDS011;10111;50.814;4.572;2023-02-15T04:11:07;40.57;;;22.80;;
19897;SDS011;10111;50.814;4.572;2023-02-15T04:13:33;39.67;;;23.67;;
19897;SDS011;10111;50.814;4.572;2023-02-15T04:15:58;42.60;;;24.97;;
19897;SDS011;10111;50.814;4.572;2023-02-15T04:18:37;44.33;;;24.93;;
19897;SDS011;10111;50.814;4.572;2023-02-15T04:21:26;43.80;;;25.40;;
19897;SDS011;10111;50.814;4.572;2023-02-15T04:24:12;50.97;;;26.60;;
19897;SDS011;10111;50.814;4.572;2023-02-15T04:26:58;46.67;;;24.43;;
19897;SDS011;10111;50.814;4.572;2023-02-15T04:29:25;42.00;;;24.20;;
19897;SDS011;10111;50.814;4.572;2023-02-15T04:31:54;41.97;;;24.80;;
19897;SDS011;10111;50.814;4.572;2023-02-15T04:34:21;50.70;;;25.57;;
19897;SDS011;10111;50.814;4.572;2023-02-15T04:36:46;40.83;;;24.23;;
19897;SDS011;10111;50.814;4.572;2023-02-15T04:39:12;42.00;;;23.73;;
19897;SDS011;10111;50.814;4.572;2023-02-15T04:41:39;38.30;;;23.07;;
19897;SDS011;10111;50.814;4.572;2023-02-15T04:44:05;43.10;;;24.47;;
19897;SDS011;10111;50.814;4.572;2023-02-15T04:46:31;48.57;;;24.60;;
19897;SDS011;10111;50.814;4.572;2023-02-15T04:48:56;46.23;;;23.63;;
19897;SDS011;10111;50.814;4.572;2023-02-15T04:51:22;43.57;;;24.93;;
19897;SDS011;10111;50.814;4.572;2023-02-15T04:53:48;44.07;;;24.37;;
19897;SDS011;10111;50.814;4.572;2023-02-15T04:56:14;42.10;;;25.73;;
19897;SDS011;10111;50.814;4.572;2023-02-15T04:58:40;39.60;;;23.20;;
19897;SDS011;10111;50.814;4.572;2023-02-15T05:01:09;46.73;;;24.43;;
19897;SDS011;10111;50.814;4.572;2023-02-15T05:03:35;54.80;;;26.57;;
19897;SDS011;10111;50.814;4.572;2023-02-15T05:06:01;36.70;;;23.60;;
19897;SDS011;10111;50.814;4.572;2023-02-15T05:08:26;45.57;;;26.10;;
19897;SDS011;10111;50.814;4.572;2023-02-15T05:10:52;43.23;;;23.90;;
19897;SDS011;10111;50.814;4.572;2023-02-15T05:13:17;44.50;;;23.00;;
19897;SDS011;10111;50.814;4.572;2023-02-15T05:15:47;43.10;;;23.93;;
19897;SDS011;10111;50.814;4.572;2023-02-15T05:18:14;43.47;;;26.17;;
19897;SDS011;10111;50.814;4.572;2023-02-15T05:20:40;44.40;;;24.73;;
19897;SDS011;10111;50.814;4.572;2023-02-15T05:23:05;39.17;;;23.97;;
19897;SDS011;10111;50.814;4.572;2023-02-15T05:25:31;36.60;;;21.70;;
19897;SDS011;10111;50.814;4.572;2023-02-15T05:28:15;41.77;;;24.77;;
19897;SDS011;10111;50.814;4.572;2023-02-15T05:30:44;47.47;;;26.30;;
19897;SDS011;10111;50.814;4.572;2023-02-15T05:33:10;44.57;;;26.10;;
19897;SDS011;10111;50.814;4.572;2023-02-15T05:35:35;38.33;;;24.10;;
19897;SDS011;10111;50.814;4.572;2023-02-15T05:38:01;56.87;;;25.50;;
19897;SDS011;10111;50.814;4.572;2023-02-15T05:40:27;47.60;;;26.07;;
19897;SDS011;10111;50.814;4.572;2023-02-15T05:42:52;43.93;;;23.17;;
19897;SDS011;10111;50.814;4.572;2023-02-15T05:45:18;40.33;;;24.97;;
19897;SDS011;10111;50.814;4.572;2023-02-15T05:47:44;39.30;;;24.70;;
19897;SDS011;10111;50.814;4.572;2023-02-15T05:50:09;37.40;;;24.90;;
19897;SDS011;10111;50.814;4.572;2023-02-15T05:52:36;45.10;;;26.07;;
19897;SDS011;10111;50.814;4.572;2023-02-15T05:55:02;43.83;;;26.87;;
19897;SDS011;10111;50.814;4.572;2023-02-15T05:57:29;41.93;;;23.17;;
19897;SDS011;10111;50.814;4.572;2023-02-15T05:59:55;44.70;;;25.87;;
19897;SDS011;10111;50.814;4.572;2023-02-15T06:02:21;45.60;;;25.37;;
19897;SDS011;10111;50.814;4.572;2023-02-15T06:04:46;41.10;;;25.10;;
19897;SDS011;10111;50.814;4.572;2023-02-15T06:07:12;46.03;;;26.77;;
19897;SDS011;10111;50.814;4.572;2023-02-15T06:09:38;38.07;;;22.53;;
19897;SDS011;10111;50.814;4.572;2023-02-15T06:12:03;38.67;;;23.57;;
19897;SDS011;10111;50.814;4.572;2023-02-15T06:14:29;49.93;;;25.10;;
19897;SDS011;10111;50.814;4.572;2023-02-15T06:16:55;41.67;;;24.60;;
19897;SDS011;10111;50.814;4.572;2023-02-15T06:19:20;40.37;;;23.73;;
19897;SDS011;10111;50.814;4.572;2023-02-15T06:21:47;37.53;;;23.00;;
19897;SDS011;10111;50.814;4.572;2023-02-15T06:24:13;45.60;;;24.27;;
19897;SDS011;10111;50.814;4.572;2023-02-15T06:26:39;43.07;;;24.03;;
19897;SDS011;10111;50.814;4.572;2023-02-15T06:29:05;53.33;;;26.67;;
19897;SDS011;10111;50.814;4.572;2023-02-15T06:31:31;37.07;;;24.87;;
19897;SDS011;10111;50.814;4.572;2023-02-15T06:33:56;50.83;;;25.93;;
19897;SDS011;10111;50.814;4.572;2023-02-15T06:36:29;40.97;;;23.50;;
19897;SDS011;10111;50.814;4.572;2023-02-15T06:38:56;46.70;;;24.30;;
19897;SDS011;10111;50.814;4.572;2023-02-15T06:41:22;43.97;;;25.87;;
19897;SDS011;10111;50.814;4.572;2023-02-15T06:43:48;39.03;;;24.73;;
19897;SDS011;10111;50.814;4.572;2023-02-15T06:46:14;38.43;;;24.70;;
19897;SDS011;10111;50.814;4.572;2023-02-15T06:48:40;42.70;;;23.57;;
19897;SDS011;10111;50.814;4.572;2023-02-15T06:51:05;45.90;;;24.73;;
19897;SDS011;10111;50.814;4.572;2023-02-15T06:53:31;45.63;;;26.77;;
19897;SDS011;10111;50.814;4.572;2023-02-15T06:56:03;47.80;;;24.50;;
19897;SDS011;10111;50.814;4.572;2023-02-15T06:58:34;52.87;;;25.27;;
19897;SDS011;10111;50.814;4.572;2023-02-15T07:01:00;40.63;;;24.47;;
19897;SDS011;10111;50.814;4.572;2023-02-15T07:03:26;44.30;;;24.00;;
19897;SDS011;10111;50.814;4.572;2023-02-15T07:05:55;41.83;;;23.27;;
19897;SDS011;10111;50.814;4.572;2023-02-15T07:08:22;40.17;;;22.97;;
19897;SDS011;10111;50.814;4.572;2023-02-15T07:10:48;42.37;;;23.33;;
19897;SDS011;10111;50.814;4.572;2023-02-15T07:13:15;40.03;;;23.77;;
19897;SDS011;10111;50.814;4.572;2023-02-15T07:15:40;53.43;;;25.10;;
19897;SDS011;10111;50.814;4.572;2023-02-15T07:18:06;49.17;;;25.47;;
19897;SDS011;10111;50.814;4.572;2023-02-15T07:20:32;41.60;;;25.70;;
19897;SDS011;10111;50.814;4.572;2023-02-15T07:23:00;43.83;;;24.77;;
19897;SDS011;10111;50.814;4.572;2023-02-15T07:25:26;44.23;;;25.10;;
19897;SDS011;10111;50.814;4.572;2023-02-15T07:27:58;52.20;;;27.23;;
19897;SDS011;10111;50.814;4.572;2023-02-15T07:30:24;43.83;;;25.17;;
19897;SDS011;10111;50.814;4.572;2023-02-15T07:32:50;44.83;;;25.17;;
19897;SDS011;10111;50.814;4.572;2023-02-15T07:35:38;39.33;;;24.47;;
19897;SDS011;10111;50.814;4.572;2023-02-15T07:38:10;46.67;;;24.97;;
19897;SDS011;10111;50.814;4.572;2023-02-15T07:40:36;43.93;;;25.33;;
19897;SDS011;10111;50.814;4.572;2023-02-15T07:43:02;45.40;;;24.87;;
19897;SDS011;10111;50.814;4.572;2023-02-15T07:45:27;40.07;;;26.73;;
19897;SDS011;10111;50.814;4.572;2023-02-15T07:47:53;42.40;;;25.73;;
19897;SDS011;10111;50.814;4.572;2023-02-15T07:50:18;51.20;;;27.43;;
19897;SDS011;10111;50.814;4.572;2023-02-15T07:52:44;50.67;;;26.10;;
19897;SDS011;10111;50.814;4.572;2023-02-15T07:55:10;59.30;;;28.87;;
19897;SDS011;10111;50.814;4.572;2023-02-15T07:57:38;51.03;;;26.73;;
19897;SDS011;10111;50.814;4.572;2023-02-15T08:00:08;47.03;;;27.43;;
19897;SDS011;10111;50.814;4.572;2023-02-15T08:02:34;54.63;;;26.83;;
19897;SDS011;10111;50.814;4.572;2023-02-15T08:05:01;51.80;;;26.17;;
19897;SDS011;10111;50.814;4.572;2023-02-15T08:07:27;46.50;;;26.77;;
19897;SDS011;10111;50.814;4.572;2023-02-15T08:09:53;48.20;;;28.23;;
19897;SDS011;10111;50.814;4.572;2023-02-15T08:12:19;43.83;;;26.53;;
19897;SDS011;10111;50.814;4.572;2023-02-15T08:14:44;56.60;;;27.83;;
19897;SDS011;10111;50.814;4.572;2023-02-15T08:17:10;48.57;;;27.00;;
19897;SDS011;10111;50.814;4.572;2023-02-15T08:19:36;45.70;;;27.07;;
19897;SDS011;10111;50.814;4.572;2023-02-15T08:22:03;48.37;;;26.63;;
19897;SDS011;10111;50.814;4.572;2023-02-15T08:24:31;47.27;;;26.87;;
19897;SDS011;10111;50.814;4.572;2023-02-15T08:26:58;46.50;;;26.77;;
19897;SDS011;10111;50.814;4.572;2023-02-15T08:29:25;55.40;;;28.77;;
19897;SDS011;10111;50.814;4.572;2023-02-15T08:31:53;52.53;;;27.77;;
19897;SDS011;10111;50.814;4.572;2023-02-15T08:34:20;51.73;;;27.53;;
19897;SDS011;10111;50.814;4.572;2023-02-15T08:36:46;45.73;;;28.57;;
19897;SDS011;10111;50.814;4.572;2023-02-15T08:39:12;50.97;;;28.40;;
19897;SDS011;10111;50.814;4.572;2023-02-15T08:41:41;46.27;;;27.73;;
19897;SDS011;10111;50.814;4.572;2023-02-15T08:44:08;51.33;;;30.70;;
19897;SDS011;10111;50.814;4.572;2023-02-15T08:46:36;50.33;;;29.23;;
19897;SDS011;10111;50.814;4.572;2023-02-15T08:49:03;55.07;;;31.40;;
19897;SDS011;10111;50.814;4.572;2023-02-15T08:51:30;55.43;;;31.00;;
19897;SDS011;10111;50.814;4.572;2023-02-15T08:54:04;48.07;;;28.40;;
19897;SDS011;10111;50.814;4.572;2023-02-15T08:56:33;52.43;;;29.33;;
19897;SDS011;10111;50.814;4.572;2023-02-15T08:59:00;53.03;;;28.47;;
19897;SDS011;10111;50.814;4.572;2023-02-15T09:01:27;53.80;;;28.60;;
19897;SDS011;10111;50.814;4.572;2023-02-15T09:03:55;54.03;;;28.77;;
19897;SDS011;10111;50.814;4.572;2023-02-15T09:06:23;55.33;;;30.03;;
19897;SDS011;10111;50.814;4.572;2023-02-15T09:08:49;54.60;;;30.57;;
19897;SDS011;10111;50.814;4.572;2023-02-15T09:11:16;45.50;;;25.23;;
19897;SDS011;10111;50.814;4.572;2023-02-15T09:13:52;52.87;;;28.53;;
19897;SDS011;10111;50.814;4.572;2023-02-15T09:16:22;51.63;;;30.20;;
19897;SDS011;10111;50.814;4.572;2023-02-15T09:18:51;53.17;;;28.80;;
19897;SDS011;10111;50.814;4.572;2023-02-15T09:21:18;50.90;;;28.87;;
19897;SDS011;10111;50.814;4.572;2023-02-15T09:23:47;44.70;;;25.30;;
19897;SDS011;10111;50.814;4.572;2023-02-15T09:26:15;51.30;;;27.87;;
19897;SDS011;10111;50.814;4.572;2023-02-15T09:28:43;46.70;;;24.87;;
19897;SDS011;10111;50.814;4.572;2023-02-15T09:31:14;45.33;;;25.60;;
19897;SDS011;10111;50.814;4.572;2023-02-15T09:33:42;45.27;;;23.50;;
19897;SDS011;10111;50.814;4.572;2023-02-15T09:36:18;43.20;;;24.33;;
19897;SDS011;10111;50.814;4.572;2023-02-15T09:38:44;41.23;;;23.03;;
19897;SDS011;10111;50.814;4.572;2023-02-15T10:03:15;40.50;;;21.13;;
19897;SDS011;10111;50.814;4.572;2023-02-15T10:08:27;32.73;;;20.50;;
19897;SDS011;10111;50.814;4.572;2023-02-15T10:11:16;29.07;;;18.47;;
19897;SDS011;10111;50.814;4.572;2023-02-15T10:22:11;36.40;;;19.57;;
19897;SDS011;10111;50.814;4.572;2023-02-15T10:27:46;31.63;;;18.00;;
19897;SDS011;10111;50.814;4.572;2023-02-15T10:30:14;33.63;;;18.50;;
19897;SDS011;10111;50.814;4.572;2023-02-15T10:33:09;29.33;;;17.73;;
19897;SDS011;10111;50.814;4.572;2023-02-15T10:43:59;34.20;;;17.43;;
19897;SDS011;10111;50.814;4.572;2023-02-15T10:54:37;27.33;;;16.03;;
19897;SDS011;10111;50.814;4.572;2023-02-15T10:57:24;33.37;;;18.43;;
19897;SDS011;10111;50.814;4.572;2023-02-15T11:05:34;26.10;;;15.87;;
19897;SDS011;10111;50.814;4.572;2023-02-15T11:08:18;34.33;;;16.67;;
19897;SDS011;10111;50.814;4.572;2023-02-15T11:10:47;27.20;;;16.73;;
19897;SDS011;10111;50.814;4.572;2023-02-15T11:13:17;28.13;;;16.43;;
19897;SDS011;10111;50.814;4.572;2023-02-15T11:23:26;33.67;;;16.77;;
19897;SDS011;10111;50.814;4.572;2023-02-15T11:25:59;25.57;;;16.80;;
19897;SDS011;10111;50.814;4.572;2023-02-15T11:28:29;28.10;;;16.07;;
19897;SDS011;10111;50.814;4.572;2023-02-15T11:31:21;30.13;;;17.23;;
19897;SDS011;10111;50.814;4.572;2023-02-15T11:34:00;30.73;;;16.97;;
19897;SDS011;10111;50.814;4.572;2023-02-15T11:36:33;27.30;;;16.83;;
19897;SDS011;10111;50.814;4.572;2023-02-15T11:39:11;29.90;;;16.70;;
19897;SDS011;10111;50.814;4.572;2023-02-15T11:41:41;28.30;;;16.87;;
19897;SDS011;10111;50.814;4.572;2023-02-15T11:44:16;30.33;;;17.53;;
19897;SDS011;10111;50.814;4.572;2023-02-15T11:46:43;29.00;;;15.77;;
19897;SDS011;10111;50.814;4.572;2023-02-15T11:49:14;25.43;;;15.83;;
19897;SDS011;10111;50.814;4.572;2023-02-15T11:51:54;26.90;;;16.93;;
19897;SDS011;10111;50.814;4.572;2023-02-15T11:54:24;28.10;;;17.37;;
19897;SDS011;10111;50.814;4.572;2023-02-15T11:56:56;30.20;;;16.77;;
19897;SDS011;10111;50.814;4.572;2023-02-15T11:59:49;30.37;;;16.67;;
19897;SDS011;10111;50.814;4.572;2023-02-15T12:02:23;29.47;;;16.63;;
19897;SDS011;10111;50.814;4.572;2023-02-15T12:04:54;28.37;;;14.60;;
19897;SDS011;10111;50.814;4.572;2023-02-15T12:07:32;27.30;;;16.97;;
19897;SDS011;10111;50.814;4.572;2023-02-15T12:10:10;35.07;;;17.37;;
19897;SDS011;10111;50.814;4.572;2023-02-15T12:12:45;26.03;;;16.50;;
19897;SDS011;10111;50.814;4.572;2023-02-15T12:15:11;29.20;;;17.00;;
19897;SDS011;10111;50.814;4.572;2023-02-15T12:17:39;25.87;;;16.80;;
19897;SDS011;10111;50.814;4.572;2023-02-15T12:22:50;28.93;;;15.73;;
19897;SDS011;10111;50.814;4.572;2023-02-15T12:27:51;28.83;;;16.33;;
19897;SDS011;10111;50.814;4.572;2023-02-15T12:32:50;32.10;;;19.00;;
19897;SDS011;10111;50.814;4.572;2023-02-15T12:35:26;35.33;;;18.43;;
19897;SDS011;10111;50.814;4.572;2023-02-15T12:38:00;32.43;;;16.73;;
19897;SDS011;10111;50.814;4.572;2023-02-15T12:40:56;27.97;;;15.83;;
19897;SDS011;10111;50.814;4.572;2023-02-15T12:43:31;33.83;;;17.33;;
19897;SDS011;10111;50.814;4.572;2023-02-15T12:54:36;39.07;;;19.57;;
19897;SDS011;10111;50.814;4.572;2023-02-15T13:02:55;27.13;;;16.10;;
19897;SDS011;10111;50.814;4.572;2023-02-15T13:08:26;31.13;;;16.53;;
19897;SDS011;10111;50.814;4.572;2023-02-15T13:13:50;29.00;;;15.77;;
19897;SDS011;10111;50.814;4.572;2023-02-15T13:16:19;28.70;;;17.30;;
19897;SDS011;10111;50.814;4.572;2023-02-15T13:19:17;32.27;;;18.23;;
19897;SDS011;10111;50.814;4.572;2023-02-15T13:21:48;28.37;;;17.63;;
19897;SDS011;10111;50.814;4.572;2023-02-15T13:24:24;34.13;;;18.53;;
19897;SDS011;10111;50.814;4.572;2023-02-15T13:26:57;27.77;;;16.50;;
19897;SDS011;10111;50.814;4.572;2023-02-15T13:29:30;32.30;;;18.70;;
19897;SDS011;10111;50.814;4.572;2023-02-15T13:32:02;34.33;;;18.10;;
19897;SDS011;10111;50.814;4.572;2023-02-15T13:34:50;34.63;;;17.30;;
19897;SDS011;10111;50.814;4.572;2023-02-15T13:37:26;31.90;;;18.30;;
19897;SDS011;10111;50.814;4.572;2023-02-15T13:40:04;29.43;;;17.57;;
19897;SDS011;10111;50.814;4.572;2023-02-15T13:42:54;33.93;;;18.90;;
19897;SDS011;10111;50.814;4.572;2023-02-15T13:51:35;27.73;;;17.63;;
19897;SDS011;10111;50.814;4.572;2023-02-15T14:04:58;29.93;;;18.37;;
19897;SDS011;10111;50.814;4.572;2023-02-15T14:15:58;35.40;;;18.93;;
19897;SDS011;10111;50.814;4.572;2023-02-15T14:18:46;31.50;;;18.17;;
19897;SDS011;10111;50.814;4.572;2023-02-15T14:21:35;28.87;;;17.97;;
19897;SDS011;10111;50.814;4.572;2023-02-15T14:24:14;33.77;;;18.03;;
19897;SDS011;10111;50.814;4.572;2023-02-15T14:27:43;30.87;;;18.20;;
19897;SDS011;10111;50.814;4.572;2023-02-15T14:30:06;34.97;;;19.90;;
19897;SDS011;10111;50.814;4.572;2023-02-15T14:32:41;28.00;;;16.90;;
19897;SDS011;10111;50.814;4.572;2023-02-15T14:35:14;34.37;;;19.13;;
19897;SDS011;10111;50.814;4.572;2023-02-15T14:40:31;32.07;;;18.30;;
19897;SDS011;10111;50.814;4.572;2023-02-15T14:43:28;32.37;;;18.20;;
19897;SDS011;10111;50.814;4.572;2023-02-15T14:49:36;33.30;;;18.33;;
19897;SDS011;10111;50.814;4.572;2023-02-15T14:52:09;32.83;;;18.50;;
19897;SDS011;10111;50.814;4.572;2023-02-15T14:59:45;34.20;;;18.87;;
19897;SDS011;10111;50.814;4.572;2023-02-15T15:08:01;29.37;;;17.83;;
19897;SDS011;10111;50.814;4.572;2023-02-15T15:10:39;28.67;;;17.30;;
19897;SDS011;10111;50.814;4.572;2023-02-15T15:15:55;31.20;;;18.20;;
19897;SDS011;10111;50.814;4.572;2023-02-15T15:21:10;30.17;;;16.97;;
19897;SDS011;10111;50.814;4.572;2023-02-15T15:31:17;32.67;;;16.93;;
19897;SDS011;10111;50.814;4.572;2023-02-15T15:50:52;30.20;;;18.57;;
19897;SDS011;10111;50.814;4.572;2023-02-15T15:53:22;30.93;;;17.57;;
19897;SDS011;10111;50.814;4.572;2023-02-15T15:55:50;32.67;;;17.83;;
19897;SDS011;10111;50.814;4.572;2023-02-15T15:58:23;32.97;;;18.57;;
19897;SDS011;10111;50.814;4.572;2023-02-15T16:00:50;34.17;;;18.63;;
19897;SDS011;10111;50.814;4.572;2023-02-15T16:03:22;35.67;;;18.17;;
19897;SDS011;10111;50.814;4.572;2023-02-15T16:05:49;31.83;;;18.50;;
19897;SDS011;10111;50.814;4.572;2023-02-15T16:08:35;30.37;;;17.60;;
19897;SDS011;10111;50.814;4.572;2023-02-15T16:14:08;33.70;;;18.53;;
19897;SDS011;10111;50.814;4.572;2023-02-15T16:16:50;34.83;;;18.30;;
19897;SDS011;10111;50.814;4.572;2023-02-15T16:19:20;36.50;;;19.40;;
19897;SDS011;10111;50.814;4.572;2023-02-15T16:22:10;37.53;;;20.60;;
19897;SDS011;10111;50.814;4.572;2023-02-15T16:29:48;38.13;;;20.47;;
19897;SDS011;10111;50.814;4.572;2023-02-15T16:32:18;37.07;;;19.03;;
19897;SDS011;10111;50.814;4.572;2023-02-15T16:35:20;36.00;;;19.60;;
19897;SDS011;10111;50.814;4.572;2023-02-15T16:37:40;35.80;;;20.00;;
19897;SDS011;10111;50.814;4.572;2023-02-15T16:40:05;35.03;;;20.77;;
19897;SDS011;10111;50.814;4.572;2023-02-15T16:42:38;34.60;;;19.87;;
19897;SDS011;10111;50.814;4.572;2023-02-15T16:45:08;33.57;;;19.47;;
19897;SDS011;10111;50.814;4.572;2023-02-15T16:47:43;39.23;;;21.43;;
19897;SDS011;10111;50.814;4.572;2023-02-15T16:50:18;35.53;;;20.17;;
19897;SDS011;10111;50.814;4.572;2023-02-15T16:52:48;33.90;;;18.90;;
19897;SDS011;10111;50.814;4.572;2023-02-15T16:55:21;39.37;;;20.80;;
19897;SDS011;10111;50.814;4.572;2023-02-15T16:57:49;31.13;;;19.70;;
19897;SDS011;10111;50.814;4.572;2023-02-15T17:00:18;38.13;;;21.60;;
19897;SDS011;10111;50.814;4.572;2023-02-15T17:02:53;34.23;;;20.83;;
19897;SDS011;10111;50.814;4.572;2023-02-15T17:10:42;40.53;;;21.50;;
19897;SDS011;10111;50.814;4.572;2023-02-15T17:13:12;39.13;;;22.67;;
19897;SDS011;10111;50.814;4.572;2023-02-15T17:15:40;39.03;;;22.83;;
19897;SDS011;10111;50.814;4.572;2023-02-15T17:18:20;35.80;;;20.93;;
19897;SDS011;10111;50.814;4.572;2023-02-15T17:20:48;38.37;;;24.03;;
19897;SDS011;10111;50.814;4.572;2023-02-15T17:25:48;36.60;;;22.13;;
19897;SDS011;10111;50.814;4.572;2023-02-15T17:28:22;36.03;;;22.60;;
19897;SDS011;10111;50.814;4.572;2023-02-15T17:30:50;38.57;;;23.07;;
19897;SDS011;10111;50.814;4.572;2023-02-15T17:33:21;42.07;;;22.43;;
19897;SDS011;10111;50.814;4.572;2023-02-15T17:36:11;45.10;;;25.03;;
19897;SDS011;10111;50.814;4.572;2023-02-15T17:39:06;41.23;;;23.07;;
19897;SDS011;10111;50.814;4.572;2023-02-15T17:41:44;42.00;;;24.50;;
19897;SDS011;10111;50.814;4.572;2023-02-15T17:44:10;44.80;;;23.20;;
19897;SDS011;10111;50.814;4.572;2023-02-15T17:46:39;42.57;;;24.60;;
19897;SDS011;10111;50.814;4.572;2023-02-15T17:49:05;46.97;;;25.33;;
19897;SDS011;10111;50.814;4.572;2023-02-15T17:51:31;41.73;;;23.77;;
19897;SDS011;10111;50.814;4.572;2023-02-15T17:54:00;41.83;;;24.47;;
19897;SDS011;10111;50.814;4.572;2023-02-15T17:56:45;44.07;;;23.03;;
19897;SDS011;10111;50.814;4.572;2023-02-15T17:59:10;40.33;;;22.90;;
19897;SDS011;10111;50.814;4.572;2023-02-15T18:01:41;41.87;;;23.50;;
19897;SDS011;10111;50.814;4.572;2023-02-15T18:04:28;37.77;;;22.13;;
19897;SDS011;10111;50.814;4.572;2023-02-15T18:07:15;39.00;;;23.20;;
19897;SDS011;10111;50.814;4.572;2023-02-15T18:10:01;46.33;;;23.90;;
19897;SDS011;10111;50.814;4.572;2023-02-15T18:12:55;41.57;;;22.53;;
19897;SDS011;10111;50.814;4.572;2023-02-15T18:15:20;38.60;;;24.13;;
19897;SDS011;10111;50.814;4.572;2023-02-15T18:17:46;43.23;;;23.00;;